Time;durP1;ratioP1;P1;durP2;ratioP2;P2;SDS_P1;SDS_P2;PMS_P1;PMS_P2;Temp;Humidity;BMP_temperature;BMP_pressure;BME280_temperature;BME280_humidity;BME280_pressure;Samples;Min_cycle;Max_cycle;Signal;HPM_P1;HPM_P2
2023/08/12 00:00:55;;;;;;;4.00;2.93;;;;;;;20.85;86.97;98898.09;4919463;28;20240;-54
2023/08/12 00:03:22;;;;;;;7.57;3.43;;;;;;;20.84;92.03;98907.06;4924165;28;20265;-54
2023/08/12 00:05:48;;;;;;;5.33;2.77;;;;;;;20.81;90.84;98904.84;4919033;28;20763;-54
2023/08/12 00:08:15;;;;;;;3.40;2.90;;;;;;;20.83;88.27;98902.81;4921433;28;20251;-54
2023/08/12 00:10:41;;;;;;;8.17;2.90;;;;;;;20.90;88.75;98900.13;4920666;28;20232;-56
2023/08/12 00:13:08;;;;;;;5.47;2.70;;;;;;;20.97;86.56;98900.91;4920199;29;20599;-55
2023/08/12 00:15:36;;;;;;;5.30;2.93;;;;;;;21.06;89.76;98899.66;4919666;28;20212;-55
2023/08/12 00:18:06;;;;;;;5.70;2.70;;;;;;;21.03;89.62;98910.69;4920664;28;20243;-55
2023/08/12 00:20:32;;;;;;;4.10;2.90;;;;;;;21.00;89.70;98889.88;4922146;28;20313;-53
2023/08/12 00:22:59;;;;;;;6.37;2.70;;;;;;;20.92;92.92;98888.25;4918606;28;20599;-54
2023/08/12 00:25:26;;;;;;;4.23;2.80;;;;;;;20.89;90.60;98875.41;4921579;28;20241;-55
2023/08/12 00:27:53;;;;;;;7.50;3.07;;;;;;;20.87;90.10;98881.97;4920122;28;20688;-55
2023/08/12 00:30:19;;;;;;;6.10;2.50;;;;;;;20.84;89.45;98879.75;4936246;28;20236;-54
2023/08/12 00:32:47;;;;;;;4.63;3.00;;;;;;;20.84;89.84;98877.91;4919100;28;20250;-55
2023/08/12 00:35:14;;;;;;;3.37;2.80;;;;;;;20.82;90.34;98879.16;4920121;29;20692;-55
2023/08/12 00:37:41;;;;;;;5.57;2.93;;;;;;;20.94;89.10;98877.47;4920663;29;20236;-55
2023/08/12 00:40:11;;;;;;;5.93;2.87;;;;;;;20.93;89.60;98875.81;4936577;28;20236;-55
2023/08/12 00:42:38;;;;;;;5.30;3.10;;;;;;;20.90;87.94;98885.00;4920982;28;20229;-55
2023/08/12 00:45:10;;;;;;;4.80;2.90;;;;;;;20.88;88.50;98886.25;4918582;28;20233;-54
2023/08/12 00:47:37;;;;;;;6.07;2.90;;;;;;;20.82;88.71;98889.75;4916758;29;20350;-55
2023/08/12 00:50:06;;;;;;;5.20;2.73;;;;;;;20.82;88.30;98884.44;4918593;29;20244;-55
2023/08/12 00:52:35;;;;;;;3.90;2.60;;;;;;;20.77;88.80;98890.34;4915933;28;20279;-55
2023/08/12 00:55:02;;;;;;;5.13;3.03;;;;;;;20.72;89.80;98901.59;4919224;29;20230;-55
2023/08/12 00:57:29;;;;;;;5.67;3.63;;;;;;;20.70;90.08;98898.34;4934104;28;20318;-55
2023/08/12 00:59:56;;;;;;;4.17;3.77;;;;;;;20.62;91.14;98915.31;4920676;29;20244;-55
2023/08/12 01:02:23;;;;;;;6.87;3.93;;;;;;;20.57;92.38;98911.66;4918660;29;20240;-54
2023/08/12 01:04:50;;;;;;;6.73;4.40;;;;;;;20.57;92.41;98912.47;4917399;28;20216;-54
2023/08/12 01:07:18;;;;;;;5.63;4.33;;;;;;;20.51;93.21;98913.31;4921346;29;20327;-55
2023/08/12 01:09:45;;;;;;;6.50;4.70;;;;;;;20.47;94.36;98917.41;4917824;28;20228;-55
2023/08/12 01:12:16;;;;;;;8.17;4.67;;;;;;;20.38;94.91;98919.44;4919682;28;20245;-55
2023/08/12 01:14:49;;;;;;;7.83;4.83;;;;;;;20.33;96.08;98917.44;4916824;28;20724;-54
2023/08/12 01:17:16;;;;;;;10.53;4.90;;;;;;;20.25;95.67;98915.00;4918943;29;20247;-54
2023/08/12 01:19:46;;;;;;;8.37;4.37;;;;;;;20.18;96.02;98917.66;4917078;28;20268;-55
2023/08/12 01:22:13;;;;;;;4.37;3.93;;;;;;;20.16;95.96;98916.25;4919432;28;20718;-54
2023/08/12 01:24:42;;;;;;;8.07;4.10;;;;;;;20.17;94.51;98918.66;4930410;28;20228;-55
2023/08/12 01:27:11;;;;;;;10.50;4.60;;;;;;;20.16;94.98;98913.59;4922360;29;20230;-53
2023/08/12 01:29:41;;;;;;;7.73;4.23;;;;;;;20.13;96.31;98911.34;4915523;28;20226;-55
2023/08/12 01:32:12;;;;;;;6.23;4.17;;;;;;;20.05;97.37;98909.75;4920540;28;20299;-52
2023/08/12 01:34:44;;;;;;;4.43;4.03;;;;;;;20.01;98.32;98919.13;4916601;28;20227;-54
2023/08/12 01:37:20;;;;;;;6.20;3.93;;;;;;;19.93;98.79;98925.44;4919971;28;20234;-53
2023/08/12 01:39:49;;;;;;;6.37;3.67;;;;;;;19.88;99.11;98930.50;4915364;28;20241;-55
2023/08/12 01:42:19;;;;;;;6.13;4.37;;;;;;;19.88;99.49;98936.63;4921513;29;20232;-53
2023/08/12 01:44:46;;;;;;;5.33;4.33;;;;;;;19.84;99.61;98935.41;4915186;28;20229;-55
2023/08/12 01:47:13;;;;;;;6.57;3.77;;;;;;;19.86;100.00;98937.81;4921642;29;20242;-54
2023/08/12 01:49:40;;;;;;;5.47;4.20;;;;;;;19.85;100.00;98944.97;4915475;28;20232;-55
2023/08/12 01:52:07;;;;;;;4.03;3.63;;;;;;;19.76;100.00;98939.03;4919584;28;20242;-54
2023/08/12 01:54:34;;;;;;;6.97;3.97;;;;;;;19.59;100.00;98932.53;4916696;28;20227;-54
2023/08/12 01:57:05;;;;;;;7.57;3.80;;;;;;;19.61;100.00;98941.91;4920119;29;20589;-54
2023/08/12 01:59:32;;;;;;;7.67;4.10;;;;;;;19.58;100.00;98952.88;4933766;28;20283;-54
2023/08/12 02:01:58;;;;;;;5.77;4.90;;;;;;;19.53;100.00;98949.22;4915274;29;20680;-55
2023/08/12 02:04:26;;;;;;;5.40;4.37;;;;;;;19.50;100.00;98947.78;4912180;29;20227;-55
2023/08/12 02:06:53;;;;;;;4.50;3.87;;;;;;;19.52;100.00;98940.44;4919997;29;20742;-55
2023/08/12 02:09:20;;;;;;;8.27;4.47;;;;;;;19.57;100.00;98938.03;4914540;29;20228;-55
2023/08/12 02:11:47;;;;;;;5.83;4.43;;;;;;;19.67;100.00;98944.75;4925052;28;20826;-55
2023/08/12 02:14:15;;;;;;;6.33;4.60;;;;;;;19.61;100.00;98941.06;4914034;29;20257;-54
2023/08/12 02:16:42;;;;;;;6.03;4.63;;;;;;;19.61;100.00;98941.06;4930047;29;20230;-54
2023/08/12 02:19:09;;;;;;;5.87;4.33;;;;;;;19.66;100.00;98933.34;4914999;29;20227;-53
2023/08/12 02:21:35;;;;;;;6.23;4.50;;;;;;;19.61;100.00;98933.13;4913212;29;20699;-54
2023/08/12 02:24:02;;;;;;;7.77;4.27;;;;;;;19.59;100.00;98933.34;4930829;29;20247;-55
2023/08/12 02:26:29;;;;;;;9.33;4.37;;;;;;;19.55;100.00;98939.25;4934147;29;20235;-54
2023/08/12 02:28:55;;;;;;;4.93;4.30;;;;;;;19.52;100.00;98923.78;4915034;29;20236;-54
2023/08/12 02:31:48;;;;;;;5.93;4.10;;;;;;;19.57;100.00;98934.56;4911011;29;20264;-54
2023/08/12 02:34:15;;;;;;;7.37;4.70;;;;;;;19.55;100.00;98926.81;4918208;29;20230;-55
2023/08/12 02:36:41;;;;;;;4.90;4.37;;;;;;;19.55;100.00;98924.16;4927513;28;20245;-53
2023/08/12 02:39:08;;;;;;;4.90;3.90;;;;;;;19.53;100.00;98905.03;4918225;28;20220;-54
2023/08/12 02:41:35;;;;;;;8.87;4.30;;;;;;;19.53;100.00;98904.22;4917940;28;20295;-55
2023/08/12 02:44:02;;;;;;;4.80;4.30;;;;;;;19.51;100.00;98899.09;4918269;29;20653;-55
2023/08/12 02:46:28;;;;;;;5.37;4.40;;;;;;;19.47;100.00;98898.72;4916059;29;20230;-55
2023/08/12 02:48:56;;;;;;;5.93;4.40;;;;;;;19.47;100.00;98901.38;4915685;28;20243;-54
2023/08/12 02:51:28;;;;;;;7.73;4.37;;;;;;;19.50;100.00;98900.13;4937537;28;20239;-54
2023/08/12 02:53:55;;;;;;;5.83;3.90;;;;;;;19.53;100.00;98904.22;4914297;29;20227;-54
2023/08/12 02:56:21;;;;;;;6.77;4.43;;;;;;;19.47;100.00;98898.72;4918109;28;20633;-55
2023/08/12 02:58:48;;;;;;;9.43;4.40;;;;;;;19.52;100.00;98890.16;4913039;29;20238;-54
2023/08/12 03:01:15;;;;;;;5.07;4.13;;;;;;;19.47;100.00;98880.19;4927483;28;20241;-55
2023/08/12 03:03:42;;;;;;;7.07;4.07;;;;;;;19.46;100.00;98878.56;4925321;28;20229;-53
2023/08/12 03:06:10;;;;;;;8.17;4.50;;;;;;;19.49;100.00;98871.22;4913008;29;20262;-55
2023/08/12 03:08:37;;;;;;;7.80;4.10;;;;;;;19.52;100.00;98870.81;4930632;29;20229;-54
2023/08/12 03:11:05;;;;;;;6.57;3.73;;;;;;;19.52;100.00;98866.31;4915178;29;20237;-56
2023/08/12 03:13:32;;;;;;;6.20;4.20;;;;;;;19.56;100.00;98864.91;4914533;29;20396;-55
2023/08/12 03:15:59;;;;;;;5.77;4.57;;;;;;;19.66;100.00;98855.72;4916275;29;20242;-55
2023/08/12 03:18:26;;;;;;;5.07;4.30;;;;;;;19.58;100.00;98860.22;4920599;29;20317;-55
2023/08/12 03:20:53;;;;;;;6.40;4.07;;;;;;;19.58;100.00;98862.88;4932355;29;20797;-55
2023/08/12 03:23:24;;;;;;;5.10;3.97;;;;;;;19.60;100.00;98874.06;4935087;29;20670;-55
2023/08/12 03:25:51;;;;;;;5.10;4.47;;;;;;;19.64;100.00;98881.59;4918326;29;20554;-55
2023/08/12 03:28:17;;;;;;;9.67;4.33;;;;;;;19.68;100.00;98875.69;4936465;28;20993;-55
2023/08/12 03:30:51;;;;;;;8.40;4.37;;;;;;;19.67;100.00;98887.28;5111391;23;20533;-55
2023/08/12 03:33:19;;;;;;;5.77;4.23;;;;;;;19.73;100.00;98878.53;4927689;29;20709;-55
2023/08/12 03:35:46;;;;;;;7.20;4.60;;;;;;;19.66;100.00;98879.56;4926274;29;20226;-54
2023/08/12 03:38:15;;;;;;;5.97;4.20;;;;;;;19.69;100.00;98873.88;4945843;28;20352;-54
2023/08/12 03:40:43;;;;;;;6.20;4.33;;;;;;;19.67;100.00;98871.41;4942270;28;20226;-54
2023/08/12 03:43:13;;;;;;;7.63;4.23;;;;;;;19.67;100.00;98863.47;4928769;29;20264;-55
2023/08/12 03:45:43;;;;;;;5.13;4.43;;;;;;;19.68;100.00;98851.06;4944539;23;20223;-59
2023/08/12 03:48:12;;;;;;;8.33;4.50;;;;;;;19.74;100.00;98837.78;4926680;29;20645;-60
2023/08/12 03:50:39;;;;;;;4.53;4.13;;;;;;;19.73;100.00;98832.72;4916097;29;20238;-59
2023/08/12 03:53:06;;;;;;;6.60;4.70;;;;;;;19.78;100.00;98827.63;4900579;28;20245;-59
2023/08/12 03:55:34;;;;;;;4.70;4.20;;;;;;;19.79;100.00;98837.19;4896073;29;20228;-58
2023/08/12 03:58:02;;;;;;;7.83;4.43;;;;;;;19.79;100.00;98852.25;4906581;29;20231;-59
2023/08/12 04:00:31;;;;;;;5.87;4.53;;;;;;;19.77;100.00;98852.47;4900502;29;20228;-59
2023/08/12 04:03:00;;;;;;;5.93;4.67;;;;;;;19.83;100.00;98850.81;4896273;29;20348;-59
2023/08/12 04:05:28;;;;;;;5.73;4.57;;;;;;;19.88;100.00;98848.38;4913250;29;20321;-58
2023/08/12 04:07:54;;;;;;;8.30;4.30;;;;;;;19.94;100.00;98849.44;4904786;29;20734;-58
2023/08/12 04:10:21;;;;;;;6.73;3.93;;;;;;;19.98;100.00;98855.94;4912204;29;20233;-59
2023/08/12 04:12:47;;;;;;;7.63;4.90;;;;;;;19.98;100.00;98856.75;4911252;29;20244;-58
2023/08/12 04:15:15;;;;;;;7.27;4.50;;;;;;;19.96;100.00;98861.44;4905269;29;20233;-59
2023/08/12 04:17:42;;;;;;;8.47;4.70;;;;;;;19.90;100.00;98865.72;4895032;29;20547;-58
2023/08/12 04:20:10;;;;;;;9.10;4.30;;;;;;;19.93;100.00;98867.16;4897883;29;20327;-59
2023/08/12 04:22:37;;;;;;;6.33;4.30;;;;;;;19.89;100.00;98848.22;4912102;29;20232;-59
2023/08/12 04:25:05;;;;;;;7.37;4.23;;;;;;;19.85;100.00;98849.59;4897809;29;20235;-59
2023/08/12 04:27:32;;;;;;;7.67;4.33;;;;;;;19.82;100.00;98836.78;4913964;29;20220;-59
2023/08/12 04:30:00;;;;;;;10.37;4.80;;;;;;;19.83;100.00;98848.16;4914331;29;20765;-59
2023/08/12 04:32:30;;;;;;;11.23;4.77;;;;;;;19.85;100.00;98848.78;4914480;29;20235;-59
2023/08/12 04:34:57;;;;;;;6.23;4.57;;;;;;;19.81;100.00;98845.75;4896534;29;20231;-58
2023/08/12 04:37:25;;;;;;;7.90;4.75;;;;;;;19.79;100.00;98837.19;4905899;29;20849;-59
2023/08/12 04:39:53;;;;;;;7.17;4.33;;;;;;;19.80;100.00;98840.63;4899043;28;21674;-59
2023/08/12 04:42:20;;;;;;;5.43;4.30;;;;;;;19.82;100.00;98846.53;4906743;29;20241;-61
2023/08/12 04:44:47;;;;;;;7.60;4.77;;;;;;;19.80;100.00;98836.16;4897478;28;20232;-59
2023/08/12 04:47:14;;;;;;;6.50;4.20;;;;;;;19.77;100.00;98842.69;4900805;29;20343;-59
2023/08/12 04:49:42;;;;;;;10.33;4.73;;;;;;;19.75;100.00;98847.38;4893043;28;20591;-59
2023/08/12 04:52:09;;;;;;;4.97;4.47;;;;;;;19.71;100.00;98850.66;4915637;28;20837;-59
2023/08/12 04:54:36;;;;;;;5.13;4.03;;;;;;;19.66;100.00;98842.50;4909680;29;20228;-59
2023/08/12 04:57:05;;;;;;;6.07;4.07;;;;;;;19.61;100.00;98840.44;4896402;29;20239;-59
2023/08/12 04:59:32;;;;;;;8.27;4.70;;;;;;;19.64;100.00;98839.25;4899990;29;20302;-59
2023/08/12 05:01:58;;;;;;;10.30;4.37;;;;;;;19.64;100.00;98839.25;4893617;29;20240;-59
2023/08/12 05:04:26;;;;;;;8.47;4.50;;;;;;;19.64;100.00;98840.03;4919317;29;20315;-58
2023/08/12 05:06:54;;;;;;;4.90;4.20;;;;;;;19.69;100.00;98842.09;4904590;29;20242;-59
2023/08/12 05:09:21;;;;;;;6.53;4.23;;;;;;;19.73;100.00;98832.72;4897121;29;20243;-58
2023/08/12 05:11:48;;;;;;;5.00;4.50;;;;;;;19.77;100.00;98840.03;4895762;29;20238;-58
2023/08/12 05:14:15;;;;;;;5.20;4.30;;;;;;;19.82;100.00;98847.38;4908252;29;20241;-59
2023/08/12 05:16:42;;;;;;;6.67;4.93;;;;;;;19.89;100.00;98844.72;4908949;29;20251;-58
2023/08/12 05:19:08;;;;;;;9.30;4.17;;;;;;;19.96;100.00;98834.94;4905334;29;20916;-58
2023/08/12 05:21:35;;;;;;;6.20;4.30;;;;;;;19.96;100.00;98844.75;4895828;29;20238;-59
2023/08/12 05:24:03;;;;;;;4.87;4.33;;;;;;;20.00;100.00;98835.34;4910233;29;20236;-59
2023/08/12 05:26:30;;;;;;;5.80;4.40;;;;;;;20.07;100.00;98833.50;4899204;29;20236;-59
2023/08/12 05:28:57;;;;;;;6.37;4.60;;;;;;;20.06;100.00;98831.88;4896219;29;20228;-58
2023/08/12 05:31:30;;;;;;;7.13;4.23;;;;;;;20.09;100.00;98830.63;4897552;29;20240;-59
2023/08/12 05:33:56;;;;;;;10.33;4.87;;;;;;;20.13;100.00;98829.19;4892892;29;20242;-58
2023/08/12 05:36:29;;;;;;;6.90;4.77;;;;;;;20.16;100.00;98832.22;4898913;29;20585;-59
2023/08/12 05:38:56;;;;;;;5.67;4.50;;;;;;;20.18;100.00;98840.78;4896187;28;20229;-59
2023/08/12 05:41:27;;;;;;;6.43;4.30;;;;;;;20.20;100.00;98838.75;4899610;29;21043;-59
2023/08/12 05:43:54;;;;;;;4.83;4.23;;;;;;;20.19;100.00;98839.75;4894308;28;20245;-59
2023/08/12 05:46:20;;;;;;;7.80;4.40;;;;;;;20.19;100.00;98845.06;4896778;29;20256;-58
2023/08/12 05:48:47;;;;;;;5.03;4.53;;;;;;;20.14;100.00;98850.19;4895949;28;20250;-59
2023/08/12 05:51:13;;;;;;;6.33;4.53;;;;;;;20.18;100.00;98846.09;4898757;29;20244;-59
2023/08/12 05:53:40;;;;;;;6.97;4.57;;;;;;;20.34;100.00;98849.31;4893771;28;20232;-59
2023/08/12 05:56:07;;;;;;;6.70;4.20;;;;;;;20.50;100.00;98842.75;4897941;29;20233;-58
2023/08/12 05:58:35;;;;;;;6.23;3.93;;;;;;;20.65;100.00;98845.94;4896968;28;20239;-59
2023/08/12 06:01:01;;;;;;;5.83;4.00;;;;;;;20.79;100.00;98852.03;4899933;29;20625;-59
2023/08/12 06:03:28;;;;;;;5.73;4.80;;;;;;;20.87;100.00;98858.91;4900643;29;20230;-59
2023/08/12 06:05:54;;;;;;;5.03;4.40;;;;;;;21.08;100.00;98859.59;4897364;29;20233;-58
2023/08/12 06:08:21;;;;;;;7.27;4.37;;;;;;;21.30;100.00;98851.31;4899033;29;20703;-59
2023/08/12 06:10:47;;;;;;;12.07;4.87;;;;;;;21.51;100.00;98852.75;4896309;29;20228;-59
2023/08/12 06:13:14;;;;;;;5.60;4.30;;;;;;;21.62;100.00;98856.56;4898549;29;20744;-59
2023/08/12 06:15:42;;;;;;;5.10;4.00;;;;;;;21.62;100.00;98854.75;4895633;29;20243;-59
2023/08/12 06:18:09;;;;;;;7.73;3.90;;;;;;;21.66;100.00;98860.44;4898442;29;20250;-59
2023/08/12 06:20:35;;;;;;;6.67;4.03;;;;;;;21.73;100.00;98863.03;4895726;29;20796;-59
2023/08/12 06:23:02;;;;;;;9.50;4.73;;;;;;;21.71;100.00;98852.63;4898500;29;20230;-59
2023/08/12 06:25:28;;;;;;;4.73;4.10;;;;;;;21.86;100.00;98849.63;4898861;29;20234;-59
2023/08/12 06:27:55;;;;;;;7.93;4.20;;;;;;;21.87;100.00;98863.72;4897401;29;20684;-59
2023/08/12 06:30:21;;;;;;;7.40;4.10;;;;;;;21.83;100.00;98852.72;4897809;29;20221;-59
2023/08/12 06:32:49;;;;;;;6.37;4.30;;;;;;;21.90;100.00;98848.16;4895095;29;20230;-59
2023/08/12 06:35:16;;;;;;;8.23;4.57;;;;;;;21.98;100.00;98849.72;4897058;29;20238;-59
2023/08/12 06:37:43;;;;;;;5.03;4.43;;;;;;;22.19;100.00;98848.50;4895130;28;20230;-59
2023/08/12 06:40:09;;;;;;;5.87;4.00;;;;;;;22.42;98.68;98853.13;4899958;29;20265;-58
2023/08/12 06:42:36;;;;;;;6.40;4.77;;;;;;;22.54;96.63;98850.53;4897988;28;20235;-58
2023/08/12 06:45:04;;;;;;;5.43;4.27;;;;;;;22.55;96.46;98841.53;4896833;29;20249;-58
2023/08/12 06:47:31;;;;;;;6.93;4.57;;;;;;;22.61;95.75;98842.50;4895857;29;20254;-59
2023/08/12 06:49:59;;;;;;;8.03;4.57;;;;;;;22.83;95.23;98853.47;4893427;29;20272;-56
2023/08/12 06:52:25;;;;;;;7.00;4.50;;;;;;;23.03;94.12;98852.38;4898389;28;20557;-59
2023/08/12 06:54:52;;;;;;;4.83;4.23;;;;;;;23.10;93.71;98846.94;4891544;29;20275;-59
2023/08/12 06:57:19;;;;;;;3.97;3.50;;;;;;;23.36;92.43;98848.41;4895296;29;20316;-59
2023/08/12 06:59:45;;;;;;;6.73;3.83;;;;;;;23.52;90.92;98852.25;4891951;29;20611;-58
2023/08/12 07:02:12;;;;;;;7.07;4.00;;;;;;;23.79;90.90;98853.66;4898212;29;20234;-58
2023/08/12 07:04:39;;;;;;;5.13;4.60;;;;;;;23.96;87.86;98843.09;4898050;29;20248;-59
2023/08/12 07:07:20;;;;;;;6.97;4.20;;;;;;;24.12;87.68;98842.41;4911842;28;20242;-59
2023/08/12 07:09:47;;;;;;;7.03;4.20;;;;;;;24.26;84.72;98848.31;4893921;29;20219;-58
2023/08/12 07:12:14;;;;;;;5.30;3.57;;;;;;;24.30;82.60;98852.13;4895417;29;20279;-59
2023/08/12 07:14:41;;;;;;;6.07;3.93;;;;;;;24.24;82.80;98852.25;4893868;29;20270;-59
2023/08/12 07:17:07;;;;;;;7.83;4.80;;;;;;;24.13;78.28;98853.91;4897629;29;20247;-59
2023/08/12 07:19:34;;;;;;;6.27;4.57;;;;;;;23.96;81.84;98865.25;4893480;29;20249;-59
2023/08/12 07:22:00;;;;;;;5.73;4.33;;;;;;;24.15;79.64;98867.81;4892322;29;20253;-58
2023/08/12 07:24:28;;;;;;;5.40;4.53;;;;;;;24.10;79.36;98859.69;4894693;29;20237;-59
2023/08/12 07:26:55;;;;;;;6.93;4.70;;;;;;;24.30;78.16;98862.81;4895369;29;20235;-58
2023/08/12 07:29:22;;;;;;;7.50;4.57;;;;;;;24.44;78.87;98858.00;4894737;29;20330;-59
2023/08/12 07:31:48;;;;;;;6.70;4.20;;;;;;;24.51;82.72;98860.53;4893369;29;20228;-59
2023/08/12 07:34:15;;;;;;;9.97;4.80;;;;;;;24.86;77.89;98877.50;4898064;29;20691;-59
2023/08/12 07:36:42;;;;;;;6.97;4.60;;;;;;;25.05;76.88;98875.44;4893724;29;20235;-59
2023/08/12 07:39:08;;;;;;;7.37;4.87;;;;;;;25.11;77.39;98881.66;4897182;29;20654;-58
2023/08/12 07:41:37;;;;;;;6.27;4.47;;;;;;;25.13;75.50;98869.72;4892172;28;20233;-58
2023/08/12 07:44:04;;;;;;;5.63;5.00;;;;;;;25.32;74.40;98874.84;4897452;29;20323;-58
2023/08/12 07:46:31;;;;;;;7.47;4.50;;;;;;;25.34;74.27;98872.72;4894870;29;20213;-59
2023/08/12 07:48:58;;;;;;;7.13;4.27;;;;;;;25.44;74.33;98862.22;4894464;29;20240;-58
2023/08/12 07:51:28;;;;;;;7.23;4.70;;;;;;;25.36;76.34;98859.94;4898145;29;20236;-58
2023/08/12 07:53:55;;;;;;;10.43;4.80;;;;;;;25.73;72.22;98856.78;4896228;28;20248;-59
2023/08/12 07:56:26;;;;;;;8.20;4.63;;;;;;;26.04;71.68;98853.72;4899239;29;20620;-59
2023/08/12 07:58:53;;;;;;;9.27;4.97;;;;;;;26.17;71.20;98844.56;4893206;29;20243;-59
2023/08/12 08:01:20;;;;;;;8.30;4.50;;;;;;;26.35;71.50;98841.59;4901116;29;20244;-56
2023/08/12 08:03:47;;;;;;;9.00;4.90;;;;;;;26.39;71.16;98841.88;4898968;29;20241;-59
2023/08/12 08:06:13;;;;;;;7.97;4.80;;;;;;;26.21;71.44;98835.00;4899710;29;20235;-59
2023/08/12 08:08:40;;;;;;;6.07;4.73;;;;;;;26.09;70.82;98845.75;4899933;29;20237;-58
2023/08/12 08:11:07;;;;;;;4.60;4.20;;;;;;;25.63;72.35;98845.94;4903014;29;20270;-59
2023/08/12 08:13:33;;;;;;;6.67;4.70;;;;;;;25.57;74.35;98834.38;4898123;29;20238;-59
2023/08/12 08:16:01;;;;;;;5.67;4.27;;;;;;;25.44;73.81;98822.13;4901184;29;20244;-59
2023/08/12 08:18:28;;;;;;;5.30;4.50;;;;;;;25.47;74.74;98824.31;4899926;29;20257;-59
2023/08/12 08:20:55;;;;;;;7.10;5.17;;;;;;;25.34;75.40;98830.00;4896320;29;20247;-58
2023/08/12 08:23:21;;;;;;;10.43;4.77;;;;;;;25.19;76.74;98836.69;4899919;29;20233;-59
2023/08/12 08:25:48;;;;;;;8.23;5.07;;;;;;;25.26;76.44;98833.06;4897588;29;20234;-58
2023/08/12 08:28:15;;;;;;;6.83;4.87;;;;;;;25.53;75.84;98832.41;4901875;29;20225;-59
2023/08/12 08:30:41;;;;;;;8.70;5.97;;;;;;;25.40;75.02;98836.22;4896508;29;20244;-59
2023/08/12 08:33:10;;;;;;;9.63;5.03;;;;;;;25.66;74.91;98831.28;4898078;29;20245;-59
2023/08/12 08:35:36;;;;;;;6.33;5.30;;;;;;;25.86;75.06;98830.75;4896707;29;20581;-59
2023/08/12 08:38:03;;;;;;;6.50;4.90;;;;;;;25.79;74.18;98825.59;4897770;29;20243;-59
2023/08/12 08:40:30;;;;;;;10.67;5.57;;;;;;;25.69;75.00;98828.91;4900668;29;20225;-59
2023/08/12 08:43:03;;;;;;;7.87;5.00;;;;;;;25.78;75.14;98829.31;4893742;29;20597;-59
2023/08/12 08:45:33;;;;;;;7.27;5.40;;;;;;;25.83;74.39;98828.56;4898361;29;20360;-59
2023/08/12 08:48:01;;;;;;;8.33;5.10;;;;;;;25.90;72.82;98826.53;4898102;29;20818;-59
2023/08/12 08:50:31;;;;;;;8.00;5.00;;;;;;;25.82;73.57;98819.75;4898591;29;20244;-59
2023/08/12 08:52:58;;;;;;;6.77;5.10;;;;;;;26.02;73.45;98816.53;4897693;28;20245;-59
2023/08/12 08:55:25;;;;;;;5.83;4.93;;;;;;;26.16;73.46;98824.22;4899377;29;20272;-59
2023/08/12 08:57:51;;;;;;;6.97;5.13;;;;;;;26.22;72.09;98833.94;4897775;29;20234;-59
2023/08/12 09:00:19;;;;;;;12.63;5.90;;;;;;;26.36;71.53;98853.91;4901409;29;20219;-59
2023/08/12 09:02:48;;;;;;;11.27;5.53;;;;;;;26.25;71.48;98878.09;4898793;28;20798;-59
2023/08/12 09:05:16;;;;;;;10.87;6.00;;;;;;;25.73;73.74;98915.59;4900033;29;20243;-59
2023/08/12 09:07:45;;;;;;;7.53;6.17;;;;;;;24.81;80.75;98928.94;4897701;29;20226;-59
2023/08/12 09:10:12;;;;;;;8.50;5.90;;;;;;;25.04;79.83;98908.53;4901534;29;20715;-59
2023/08/12 09:12:39;;;;;;;8.67;5.73;;;;;;;25.50;77.96;98884.50;4896560;28;20233;-59
2023/08/12 09:15:06;;;;;;;9.80;6.03;;;;;;;25.74;76.49;98885.13;4900166;29;20574;-59
2023/08/12 09:17:33;;;;;;;6.83;5.93;;;;;;;26.02;74.46;98870.03;4901287;29;20298;-59
2023/08/12 09:20:00;;;;;;;8.83;6.00;;;;;;;26.29;75.18;98860.50;4904310;29;20263;-59
2023/08/12 09:22:27;;;;;;;8.37;5.20;;;;;;;26.50;74.45;98867.72;4906449;29;20245;-59
2023/08/12 09:24:58;;;;;;;11.43;5.53;;;;;;;26.55;72.19;98872.31;4895771;29;20253;-59
2023/08/12 09:27:25;;;;;;;9.03;5.47;;;;;;;26.35;73.23;98867.53;4899060;29;20254;-59
2023/08/12 09:29:57;;;;;;;8.17;5.67;;;;;;;26.02;74.70;98856.66;4897407;29;20298;-59
2023/08/12 09:32:24;;;;;;;10.93;5.97;;;;;;;25.76;76.26;98855.50;4902958;29;20740;-59
2023/08/12 09:34:52;;;;;;;9.43;5.60;;;;;;;25.75;77.61;98849.31;4896081;28;20218;-59
2023/08/12 09:37:19;;;;;;;7.97;5.40;;;;;;;25.73;77.86;98843.41;4897415;29;20234;-60
2023/08/12 09:39:47;;;;;;;9.13;6.13;;;;;;;25.90;76.86;98842.56;4894149;29;20573;-60
2023/08/12 09:42:16;;;;;;;5.60;5.10;;;;;;;25.89;77.57;98835.63;4898747;29;20243;-60
2023/08/12 09:44:43;;;;;;;7.63;5.60;;;;;;;25.99;75.93;98833.06;4897056;28;20233;-60
2023/08/12 09:47:10;;;;;;;10.57;5.40;;;;;;;26.34;77.39;98844.50;4897259;29;20316;-60
2023/08/12 09:49:37;;;;;;;7.87;5.73;;;;;;;26.43;74.53;98844.88;4903264;29;20221;-60
2023/08/12 09:52:05;;;;;;;6.63;5.93;;;;;;;26.45;72.00;98848.13;4901336;28;20235;-60
2023/08/12 09:54:34;;;;;;;8.70;5.10;;;;;;;26.58;73.28;98844.25;4896731;29;20226;-60
2023/08/12 09:57:02;;;;;;;8.83;5.10;;;;;;;26.51;73.84;98842.56;4896678;29;20316;-60
2023/08/12 09:59:34;;;;;;;5.93;5.37;;;;;;;26.56;72.53;98843.69;4897453;29;20278;-58
2023/08/12 10:02:03;;;;;;;7.90;5.33;;;;;;;26.77;71.63;98850.88;4897024;29;20376;-59
2023/08/12 10:04:36;;;;;;;7.57;5.37;;;;;;;26.91;71.70;98845.94;4895350;29;20285;-59
2023/08/12 10:07:04;;;;;;;5.60;4.83;;;;;;;27.06;69.35;98847.16;4896286;29;20224;-59
2023/08/12 10:09:31;;;;;;;5.45;4.50;;;;;;;27.31;69.27;98859.16;4895279;29;20262;-59
2023/08/12 10:11:58;;;;;;;5.23;4.60;;;;;;;27.44;65.19;98853.38;4894959;29;20267;-59
2023/08/12 10:14:26;;;;;;;5.57;4.90;;;;;;;27.58;66.56;98852.94;4899037;29;20233;-58
2023/08/12 10:16:55;;;;;;;5.77;3.90;;;;;;;27.70;63.64;98853.56;4895210;29;20244;-59
2023/08/12 10:19:25;;;;;;;6.75;4.20;;;;;;;27.51;63.00;98850.47;4896760;29;20308;-59
2023/08/12 10:21:55;;;;;;;5.60;4.43;;;;;;;28.06;62.02;98859.13;4895377;29;20669;-60
2023/08/12 10:24:22;;;;;;;7.07;4.00;;;;;;;28.22;59.15;98883.41;4898074;29;20241;-59
2023/08/12 10:26:50;;;;;;;6.17;4.10;;;;;;;27.72;62.21;98888.97;4875685;28;20229;-59
2023/08/12 10:29:16;;;;;;;5.30;4.20;;;;;;;27.24;62.35;98892.34;4897702;29;20241;-59
2023/08/12 10:31:44;;;;;;;3.93;3.63;;;;;;;26.92;63.16;98911.84;4892940;29;20677;-59
2023/08/12 10:34:20;;;;;;;6.30;3.87;;;;;;;26.64;63.40;98921.66;4896820;29;20752;-60
2023/08/12 10:36:47;;;;;;;6.43;3.97;;;;;;;26.31;64.73;98934.13;4893298;29;20309;-58
2023/08/12 10:39:15;;;;;;;6.00;3.43;;;;;;;25.89;65.85;98940.72;4899941;29;20234;-60
2023/08/12 10:41:51;;;;;;;5.33;3.50;;;;;;;25.78;67.76;98930.94;4896155;29;20229;-59
2023/08/12 10:44:17;;;;;;;4.53;3.70;;;;;;;25.98;67.77;98925.06;4898721;29;20826;-60
2023/08/12 10:46:51;;;;;;;5.73;3.50;;;;;;;26.34;64.84;98914.06;4894475;29;20243;-59
2023/08/12 10:49:21;;;;;;;6.53;3.50;;;;;;;26.55;64.60;98909.78;4899962;29;20253;-59
2023/08/12 10:51:49;;;;;;;6.50;4.10;;;;;;;26.68;64.25;98903.25;4896541;28;20247;-59
2023/08/12 10:54:22;;;;;;;4.17;3.40;;;;;;;27.04;61.82;98887.56;4899091;29;20233;-58
2023/08/12 10:57:14;;;;;;;5.30;3.33;;;;;;;27.44;61.80;98864.09;4893856;29;20227;-58
2023/08/12 10:59:53;;;;;;;4.80;3.87;;;;;;;27.86;60.62;98862.53;4895693;28;20228;-62
2023/08/12 11:02:21;;;;;;;6.60;3.10;;;;;;;28.30;60.63;98864.09;4895263;29;20759;-58
2023/08/12 11:04:55;;;;;;;7.60;3.87;;;;;;;28.47;59.40;98873.84;4893473;29;20228;-59
2023/08/12 11:07:29;;;;;;;4.20;3.25;;;;;;;28.03;59.82;98875.75;4898106;29;20227;-59
2023/08/12 11:10:00;;;;;;;4.88;3.95;;;;;;;28.68;57.27;98882.75;4896094;28;20234;-60
2023/08/12 11:12:31;;;;;;;7.10;3.42;;;;;;;28.70;57.48;98869.88;4898879;29;20331;-59
2023/08/12 11:15:01;;;;;;;3.60;3.30;;;;;;;28.66;56.91;98876.84;4898059;28;20242;-60
2023/08/12 11:17:34;;;;;;;7.10;3.50;;;;;;;28.47;57.27;98876.53;4897171;29;20682;-59
2023/08/12 11:20:05;;;;;;;3.50;3.20;;;;;;;28.52;58.68;98882.72;4896452;29;20317;-60
2023/08/12 11:22:33;;;;;;;4.60;3.75;;;;;;;28.08;59.56;98891.88;4896412;29;20289;-59
2023/08/12 11:25:00;;;;;;;5.23;3.60;;;;;;;27.70;61.90;98904.50;4890928;29;20588;-60
2023/08/12 11:27:27;;;;;;;7.97;3.75;;;;;;;27.20;63.99;98898.44;4896101;29;20320;-59
2023/08/12 11:29:53;;;;;;;9.60;4.17;;;;;;;26.88;66.28;98897.34;4893037;28;20301;-60
2023/08/12 11:32:20;;;;;;;5.50;3.90;;;;;;;26.66;68.03;98902.69;4896907;29;20233;-60